YSNW/NOA METAR and TAF weather

Enter ICAO airport designator
Station Type Date Time Source
YSNW METAR 2020/09/18 22:30 UTC NOAA

YSNW 182230Z AUTO 02004KT 9999 // OVC004 16/16 Q1027


Station Type Date Time Source
YSNW Decoded METAR 2020/09/18 22:30 UTC NOAA

Nowra Ran Air Station, Australia (YSNW) 34-57S 150-32E 110M
Sep 18, 2020 - 06:30 PM EDT / 2020.09.18 2230 UTC
Wind: from the NNE (020 degrees) at 5 MPH (4 KT):0
Visibility: greater than 7 mile(s):0
Sky conditions: overcast
Temperature: 60 F (16 C)
Dew Point: 60 F (16 C)
Relative Humidity: 100%
Pressure (altimeter): 30.33 in. Hg (1027 hPa)
ob: YSNW 182230Z AUTO 02004KT 9999 // OVC004 16/16 Q1027
cycle: 22

Station Type Date Time Source
YSNW TAF UTC NOAA

Error!

Example: see airport list